Time;durP1;ratioP1;P1;durP2;ratioP2;P2;SDS_P1;SDS_P2;PMS_P1;PMS_P2;Temp;Humidity;BMP_temperature;BMP_pressure;BME280_temperature;BME280_humidity;BME280_pressure;Samples;Min_cycle;Max_cycle;Signal;HPM_P1;HPM_P2
2023/05/28 00:00:34;;;;;;;15.20;7.88;;;16.30;1.00;;;;;;5098832;28;20028;-70
2023/05/28 00:03:00;;;;;;;16.73;7.18;;;16.20;1.00;;;;;;5098537;28;20036;-71
2023/05/28 00:05:26;;;;;;;17.10;7.68;;;16.20;1.00;;;;;;5098790;28;20028;-71
2023/05/28 00:07:52;;;;;;;13.88;7.18;;;16.10;1.00;;;;;;5064866;28;20127;-71
2023/05/28 00:10:17;;;;;;;16.20;7.95;;;16.10;1.00;;;;;;5098468;28;20032;-70
2023/05/28 00:12:43;;;;;;;16.85;7.85;;;16.10;1.00;;;;;;5098912;28;20043;-70
2023/05/28 00:15:09;;;;;;;20.30;8.05;;;16.00;1.00;;;;;;5098426;28;20119;-71
2023/05/28 00:17:35;;;;;;;17.77;8.00;;;16.00;1.00;;;;;;5098356;28;20058;-71
2023/05/28 00:20:01;;;;;;;15.65;7.63;;;15.90;1.00;;;;;;5098941;28;20329;-71
2023/05/28 00:22:27;;;;;;;22.23;9.05;;;16.00;1.00;;;;;;5098875;28;20036;-71
2023/05/28 00:24:53;;;;;;;17.75;8.35;;;16.00;1.00;;;;;;5081336;28;20043;-71
2023/05/28 00:27:19;;;;;;;17.20;7.95;;;15.90;1.00;;;;;;5081302;28;20108;-71
2023/05/28 00:29:45;;;;;;;17.48;8.43;;;15.80;1.00;;;;;;5098052;28;20028;-71
2023/05/28 00:32:11;;;;;;;15.23;8.50;;;15.80;1.00;;;;;;5081013;28;20047;-71
2023/05/28 00:34:37;;;;;;;18.27;8.77;;;15.80;3.10;;;;;;5097929;28;20032;-71
2023/05/28 00:37:03;;;;;;;13.73;7.97;;;15.70;6.00;;;;;;5098718;28;20032;-71
2023/05/28 00:39:33;;;;;;;20.80;9.00;;;15.70;6.90;;;;;;5097885;28;20039;-71
2023/05/28 00:42:01;;;;;;;18.85;9.15;;;15.60;11.30;;;;;;5080964;28;20043;-71
2023/05/28 00:44:28;;;;;;;21.50;9.10;;;15.60;11.60;;;;;;5081002;28;20024;-71
2023/05/28 00:46:55;;;;;;;16.90;9.07;;;15.70;9.70;;;;;;5097657;28;20400;-71
2023/05/28 00:49:22;;;;;;;15.15;8.45;;;15.70;6.30;;;;;;5098398;28;20020;-71
2023/05/28 00:51:48;;;;;;;20.58;9.02;;;15.60;10.80;;;;;;5097617;28;20354;-71
2023/05/28 00:54:16;;;;;;;21.45;8.75;;;15.70;7.10;;;;;;5080717;28;20046;-71
2023/05/28 00:56:43;;;;;;;14.63;9.02;;;15.70;8.40;;;;;;5097610;28;20108;-71
2023/05/28 00:59:10;;;;;;;17.20;9.35;;;15.60;6.30;;;;;;5097479;28;20051;-71
2023/05/28 01:01:37;;;;;;;18.80;9.40;;;15.60;9.70;;;;;;5098167;28;20097;-71
2023/05/28 01:04:05;;;;;;;16.10;8.85;;;15.60;8.70;;;;;;5097241;28;20016;-71
2023/05/28 01:06:31;;;;;;;18.95;9.40;;;15.50;8.10;;;;;;5097775;28;20295;-71
2023/05/28 01:08:57;;;;;;;20.17;9.55;;;15.50;13.20;;;;;;5098107;28;20292;-72
2023/05/28 01:11:24;;;;;;;23.27;9.65;;;15.50;12.00;;;;;;5080485;28;20092;-71
2023/05/28 01:13:51;;;;;;;18.90;9.18;;;15.50;12.80;;;;;;5097046;28;20032;-71
2023/05/28 01:16:17;;;;;;;18.67;9.75;;;15.40;14.70;;;;;;5097925;28;20028;-71
2023/05/28 01:18:45;;;;;;;20.52;9.60;;;15.40;16.10;;;;;;5097066;28;20028;-70
2023/05/28 01:21:12;;;;;;;20.08;9.52;;;15.30;16.30;;;;;;5097177;28;20039;-70
2023/05/28 01:23:48;;;;;;;25.25;9.30;;;15.40;17.40;;;;;;5096398;28;20016;-71
2023/05/28 01:26:16;;;;;;;20.85;9.52;;;15.30;18.10;;;;;;5097731;28;20028;-71
2023/05/28 01:28:46;;;;;;;17.65;9.70;;;15.30;21.10;;;;;;5096920;28;20028;-71
2023/05/28 01:31:13;;;;;;;20.58;9.90;;;15.30;20.70;;;;;;5097673;28;20029;-71
2023/05/28 01:33:42;;;;;;;19.33;9.57;;;15.20;22.10;;;;;;5097702;28;20152;-71
2023/05/28 01:36:29;;;;;;;21.30;9.80;;;15.20;25.10;;;;;;5096844;28;20028;-71
2023/05/28 01:38:59;;;;;;;19.48;9.68;;;15.10;28.10;;;;;;5096964;28;20032;-71
2023/05/28 01:41:27;;;;;;;21.52;10.05;;;15.20;28.00;;;;;;5080459;28;20128;-71
2023/05/28 01:43:54;;;;;;;19.23;9.40;;;15.20;29.00;;;;;;5096767;28;20032;-72
2023/05/28 01:46:21;;;;;;;19.92;10.15;;;15.20;29.50;;;;;;5096785;28;20024;-72
2023/05/28 01:48:49;;;;;;;23.33;10.88;;;15.10;32.90;;;;;;5097598;28;20032;-71
2023/05/28 01:51:16;;;;;;;22.20;10.38;;;15.10;37.50;;;;;;5096635;28;20028;-72
2023/05/28 01:53:42;;;;;;;21.90;10.77;;;15.10;37.90;;;;;;5096478;28;20105;-71
2023/05/28 01:56:09;;;;;;;24.02;10.52;;;15.00;41.70;;;;;;5096446;28;20035;-71
2023/05/28 01:58:35;;;;;;;24.10;10.85;;;15.00;48.70;;;;;;5096424;28;20040;-71
2023/05/28 02:01:17;;;;;;;23.35;11.00;;;14.90;50.90;;;;;;5062894;28;20089;-71
2023/05/28 02:03:43;;;;;;;22.40;11.10;;;14.90;53.90;;;;;;5079561;28;20024;-71
2023/05/28 02:06:09;;;;;;;27.55;11.98;;;14.90;57.90;;;;;;5063597;28;20444;-71
2023/05/28 02:08:35;;;;;;;27.42;11.48;;;14.80;61.40;;;;;;5079498;28;20044;-71
2023/05/28 02:11:00;;;;;;;23.58;11.73;;;14.70;67.00;;;;;;5097066;28;20032;-71
2023/05/28 02:13:27;;;;;;;24.52;11.70;;;14.60;72.40;;;;;;5096995;28;20407;-71
2023/05/28 02:15:56;;;;;;;28.65;12.93;;;14.60;77.90;;;;;;5097057;28;20028;-72
2023/05/28 02:18:22;;;;;;;23.45;12.32;;;14.50;79.80;;;;;;5079524;28;20040;-71
2023/05/28 02:20:47;;;;;;;23.17;12.15;;;14.50;84.40;;;;;;5080292;28;20391;-72
2023/05/28 02:23:15;;;;;;;24.27;12.38;;;14.40;88.70;;;;;;5097065;28;20032;-72
2023/05/28 02:25:41;;;;;;;23.48;11.52;;;14.30;91.10;;;;;;5046216;28;20379;-71
2023/05/28 02:28:07;;;;;;;24.58;11.98;;;14.30;92.20;;;;;;5096222;28;20136;-71
2023/05/28 02:30:33;;;;;;;24.65;11.80;;;14.40;92.60;;;;;;5079314;28;20309;-72
2023/05/28 02:32:58;;;;;;;21.63;12.32;;;14.40;92.00;;;;;;5097001;28;20051;-71
2023/05/28 02:35:25;;;;;;;28.17;12.98;;;14.40;92.30;;;;;;5081705;28;20050;-71
2023/05/28 02:37:51;;;;;;;26.95;12.63;;;14.30;93.00;;;;;;5101000;28;20422;-71
2023/05/28 02:40:17;;;;;;;25.83;12.38;;;14.20;93.90;;;;;;5100298;28;20052;-71
2023/05/28 02:42:46;;;;;;;22.15;12.13;;;14.30;94.50;;;;;;5100084;28;20035;-71
2023/05/28 02:45:12;;;;;;;23.05;13.07;;;14.30;94.40;;;;;;5100102;28;20078;-72
2023/05/28 02:47:39;;;;;;;29.70;13.60;;;14.20;94.70;;;;;;5083274;28;20059;-71
2023/05/28 02:50:06;;;;;;;26.15;11.68;;;14.20;95.50;;;;;;5100203;28;20055;-72
2023/05/28 02:52:47;;;;;;;30.40;13.23;;;14.20;95.40;;;;;;5085347;28;20067;-72
2023/05/28 02:55:12;;;;;;;30.85;13.05;;;14.20;95.40;;;;;;5099923;28;20059;-72
2023/05/28 02:57:38;;;;;;;25.65;12.18;;;14.10;95.50;;;;;;5082906;28;20051;-72
2023/05/28 03:00:09;;;;;;;27.05;12.35;;;14.10;96.00;;;;;;5100188;28;20036;-73
2023/05/28 03:02:35;;;;;;;25.05;12.48;;;14.10;96.50;;;;;;5099775;28;20285;-72
2023/05/28 03:05:03;;;;;;;28.27;12.80;;;14.00;96.60;;;;;;5083294;28;20074;-72
2023/05/28 03:07:30;;;;;;;27.00;12.88;;;14.00;97.50;;;;;;5099584;28;20048;-72
2023/05/28 03:10:00;;;;;;;33.92;13.75;;;14.00;97.80;;;;;;5100406;28;20097;-72
2023/05/28 03:12:28;;;;;;;24.88;12.48;;;13.90;98.10;;;;;;5100947;28;20295;-72
2023/05/28 03:14:54;;;;;;;25.65;12.57;;;13.90;99.50;;;;;;5100335;28;20059;-73
2023/05/28 03:17:20;;;;;;;26.45;12.95;;;14.00;99.10;;;;;;5099558;28;20029;-72
2023/05/28 03:19:47;;;;;;;21.08;12.23;;;13.90;99.30;;;;;;5082791;28;20040;-73
2023/05/28 03:22:16;;;;;;;23.73;12.10;;;13.90;99.60;;;;;;5082858;28;20135;-72
2023/05/28 03:24:42;;;;;;;26.40;11.77;;;13.90;99.50;;;;;;5082721;28;20032;-72
2023/05/28 03:27:11;;;;;;;26.95;11.88;;;13.90;99.70;;;;;;5066721;28;20119;-72
2023/05/28 03:29:38;;;;;;;26.20;13.73;;;13.80;99.90;;;;;;5082841;28;20105;-72
2023/05/28 03:32:14;;;;;;;21.88;12.13;;;13.80;99.90;;;;;;5099557;28;20101;-72
2023/05/28 03:34:40;;;;;;;29.05;12.68;;;13.70;99.90;;;;;;5082495;28;20040;-72
2023/05/28 03:37:06;;;;;;;24.83;12.77;;;13.70;99.90;;;;;;5099913;28;20109;-72
2023/05/28 03:39:34;;;;;;;30.08;13.75;;;13.70;99.90;;;;;;5099178;28;20032;-72
2023/05/28 03:42:00;;;;;;;29.35;13.05;;;13.60;99.90;;;;;;5098936;28;20089;-72
2023/05/28 03:44:28;;;;;;;26.15;13.15;;;13.60;99.90;;;;;;5082382;28;20122;-72
2023/05/28 03:46:54;;;;;;;28.38;12.60;;;13.60;99.90;;;;;;5081389;28;20115;-72
2023/05/28 03:49:19;;;;;;;21.50;12.13;;;13.80;99.90;;;;;;5098910;28;20051;-72
2023/05/28 03:51:45;;;;;;;26.38;13.32;;;13.60;99.90;;;;;;5082068;28;20032;-72
2023/05/28 03:54:11;;;;;;;26.00;12.43;;;13.50;99.90;;;;;;5082134;28;20048;-72
2023/05/28 03:56:37;;;;;;;27.15;14.10;;;13.50;99.90;;;;;;5082007;28;20330;-72
2023/05/28 03:59:05;;;;;;;27.65;12.48;;;13.60;99.90;;;;;;5098873;28;20113;-72
2023/05/28 04:01:31;;;;;;;25.00;13.38;;;13.60;99.90;;;;;;5081900;28;20031;-72
2023/05/28 04:03:56;;;;;;;27.83;13.02;;;13.60;99.90;;;;;;5081735;28;20348;-73
2023/05/28 04:06:23;;;;;;;26.45;12.77;;;13.70;99.90;;;;;;5081514;28;20039;-73
2023/05/28 04:08:50;;;;;;;26.58;13.35;;;13.70;99.90;;;;;;5082030;28;20016;-73
2023/05/28 04:11:17;;;;;;;27.25;13.40;;;13.80;99.90;;;;;;5081936;28;20035;-73
2023/05/28 04:13:43;;;;;;;20.50;12.77;;;13.70;99.90;;;;;;5081732;28;20036;-72
2023/05/28 04:16:09;;;;;;;23.10;12.75;;;13.70;99.90;;;;;;5081416;28;20059;-72
2023/05/28 04:18:35;;;;;;;26.50;12.70;;;13.60;99.90;;;;;;5081566;28;20028;-72
2023/05/28 04:21:02;;;;;;;23.90;12.40;;;13.60;99.90;;;;;;5098270;28;20108;-72
2023/05/28 04:23:28;;;;;;;23.10;11.93;;;13.70;99.90;;;;;;5098536;28;20036;-73
2023/05/28 04:25:54;;;;;;;26.13;13.65;;;13.70;99.90;;;;;;5098421;28;20039;-72
2023/05/28 04:28:20;;;;;;;23.52;11.75;;;13.70;99.90;;;;;;5099118;28;20114;-72
2023/05/28 04:30:46;;;;;;;26.17;12.18;;;13.80;99.90;;;;;;5098158;28;20056;-72
2023/05/28 04:33:11;;;;;;;23.60;12.23;;;13.60;99.90;;;;;;5098218;28;20391;-73
2023/05/28 04:35:38;;;;;;;25.85;12.38;;;13.50;99.90;;;;;;5081199;28;20045;-73
2023/05/28 04:38:04;;;;;;;26.40;12.82;;;13.60;99.90;;;;;;5098319;28;20111;-74
2023/05/28 04:40:30;;;;;;;24.63;12.65;;;13.80;99.90;;;;;;5080989;28;20403;-72
2023/05/28 04:42:55;;;;;;;24.67;12.20;;;13.70;99.90;;;;;;5097703;28;20100;-73
2023/05/28 04:45:24;;;;;;;24.13;11.63;;;13.80;99.90;;;;;;5081144;28;20036;-73
2023/05/28 04:47:50;;;;;;;22.55;12.40;;;13.80;99.90;;;;;;5097735;28;20123;-72
2023/05/28 04:50:18;;;;;;;23.60;11.57;;;13.90;99.90;;;;;;5081148;28;20020;-72
2023/05/28 04:52:44;;;;;;;22.98;11.82;;;14.00;99.20;;;;;;5098506;28;20028;-72
2023/05/28 04:55:11;;;;;;;24.95;11.88;;;14.10;97.60;;;;;;5081046;28;20452;-72
2023/05/28 04:57:38;;;;;;;22.20;10.98;;;14.20;97.10;;;;;;5080409;28;20123;-72
2023/05/28 05:00:06;;;;;;;21.05;10.68;;;14.30;95.20;;;;;;5097071;28;20123;-73
2023/05/28 05:02:32;;;;;;;22.52;11.00;;;14.40;93.40;;;;;;5080839;28;20406;-72
2023/05/28 05:04:58;;;;;;;20.05;11.05;;;14.40;92.00;;;;;;5063916;28;20032;-72
2023/05/28 05:07:23;;;;;;;20.70;10.35;;;14.50;91.60;;;;;;5080328;28;20411;-72
2023/05/28 05:09:49;;;;;;;21.23;10.48;;;14.40;89.50;;;;;;5097406;28;20334;-72
2023/05/28 05:12:15;;;;;;;22.05;10.15;;;14.30;92.20;;;;;;5080568;28;20040;-72
2023/05/28 05:14:42;;;;;;;22.92;10.77;;;14.30;92.20;;;;;;5080572;28;20276;-72
2023/05/28 05:17:08;;;;;;;23.58;10.82;;;14.20;93.10;;;;;;5080360;28;20089;-72
2023/05/28 05:19:35;;;;;;;25.67;10.90;;;14.40;91.80;;;;;;5097405;28;20093;-72
2023/05/28 05:22:01;;;;;;;22.77;9.93;;;14.50;88.10;;;;;;5097119;28;20060;-72
2023/05/28 05:24:28;;;;;;;16.50;9.25;;;14.60;85.30;;;;;;5096953;28;20028;-71
2023/05/28 05:26:54;;;;;;;20.13;9.82;;;14.70;81.70;;;;;;5097054;28;20360;-72
2023/05/28 05:29:20;;;;;;;21.63;9.82;;;14.70;80.70;;;;;;5096960;28;20070;-71
2023/05/28 05:31:47;;;;;;;17.50;9.88;;;14.90;79.40;;;;;;5097549;28;20036;-71
2023/05/28 05:34:14;;;;;;;22.80;10.20;;;14.90;76.80;;;;;;5080206;28;20028;-71
2023/05/28 05:36:40;;;;;;;19.40;9.15;;;15.00;70.80;;;;;;5096965;28;20356;-71
2023/05/28 05:39:21;;;;;;;19.13;9.35;;;15.00;67.80;;;;;;5067806;28;20024;-71
2023/05/28 05:42:23;;;;;;;21.95;8.75;;;15.10;66.40;;;;;;5071941;28;20044;-71
2023/05/28 05:44:52;;;;;;;20.63;9.38;;;15.30;56.20;;;;;;5079949;28;20050;-71
2023/05/28 05:47:20;;;;;;;19.52;9.27;;;15.50;52.60;;;;;;5096687;28;20038;-71
2023/05/28 05:49:46;;;;;;;21.90;9.27;;;15.50;46.20;;;;;;5096675;28;20028;-71
2023/05/28 05:52:12;;;;;;;17.48;8.25;;;15.50;41.80;;;;;;5079776;28;20040;-72
2023/05/28 05:54:40;;;;;;;20.75;9.15;;;15.50;41.20;;;;;;5048102;28;20118;-72
2023/05/28 05:57:06;;;;;;;19.55;9.02;;;15.50;40.70;;;;;;5096426;28;20028;-72
2023/05/28 05:59:32;;;;;;;14.38;8.07;;;15.40;39.00;;;;;;5096831;28;20028;-71
2023/05/28 06:01:58;;;;;;;17.67;8.63;;;15.50;41.80;;;;;;5079525;28;20308;-71
2023/05/28 06:04:31;;;;;;;14.93;7.85;;;15.60;40.70;;;;;;5063284;28;20039;-72
2023/05/28 06:07:23;;;;;;;16.88;8.32;;;15.80;32.00;;;;;;5092901;28;20052;-72
2023/05/28 06:10:13;;;;;;;16.17;8.23;;;16.10;21.20;;;;;;5096396;28;20048;-71
2023/05/28 06:12:40;;;;;;;17.33;7.93;;;16.00;24.40;;;;;;5063721;28;20296;-71
2023/05/28 06:15:08;;;;;;;19.77;8.02;;;16.10;18.10;;;;;;5079659;28;20097;-72
2023/05/28 06:17:34;;;;;;;18.33;8.43;;;16.20;16.00;;;;;;5096256;28;20036;-71
2023/05/28 06:20:00;;;;;;;18.27;8.75;;;16.40;5.10;;;;;;5096264;28;20127;-72
2023/05/28 06:22:29;;;;;;;14.18;7.90;;;16.40;4.10;;;;;;5079669;28;20043;-71
2023/05/28 06:24:56;;;;;;;17.15;8.32;;;16.50;1.20;;;;;;5096187;28;20036;-71
2023/05/28 06:27:26;;;;;;;16.77;8.38;;;16.60;3.30;;;;;;5096080;28;20039;-71
2023/05/28 06:29:52;;;;;;;17.70;7.93;;;16.70;1.00;;;;;;5096207;28;20035;-72
2023/05/28 06:32:18;;;;;;;15.55;7.97;;;16.80;1.00;;;;;;5079328;28;20028;-71
2023/05/28 06:34:45;;;;;;;19.52;8.60;;;16.90;1.00;;;;;;5096053;28;20093;-71
2023/05/28 06:37:12;;;;;;;14.40;7.57;;;17.00;1.00;;;;;;5079367;28;20032;-71
2023/05/28 06:39:38;;;;;;;18.10;7.75;;;16.90;1.00;;;;;;5079518;28;20028;-72
2023/05/28 06:42:05;;;;;;;15.27;7.55;;;16.80;1.00;;;;;;5079263;28;20046;-72
2023/05/28 06:45:07;;;;;;;16.35;7.57;;;16.70;1.00;;;;;;5072550;28;20047;-71
2023/05/28 06:47:33;;;;;;;15.85;7.22;;;16.70;1.00;;;;;;5096073;28;20028;-72
2023/05/28 06:50:00;;;;;;;14.23;7.30;;;16.90;1.00;;;;;;5079319;28;20070;-70
2023/05/28 06:52:27;;;;;;;15.88;7.40;;;17.20;1.00;;;;;;5062463;28;20407;-68
2023/05/28 06:54:53;;;;;;;14.70;7.72;;;17.50;1.00;;;;;;5079172;28;20288;-69
2023/05/28 06:57:21;;;;;;;15.43;7.82;;;17.50;1.00;;;;;;5079238;28;20094;-71
2023/05/28 07:00:13;;;;;;;14.30;7.07;;;17.50;1.00;;;;;;5082001;28;20302;-71
2023/05/28 07:02:49;;;;;;;18.70;8.35;;;17.60;1.00;;;;;;5096762;28;20333;-69
2023/05/28 07:05:37;;;;;;;17.63;7.47;;;17.60;1.00;;;;;;5086481;28;20037;-70
2023/05/28 07:08:04;;;;;;;14.57;7.40;;;17.60;1.00;;;;;;5095737;28;20046;-72
2023/05/28 07:10:30;;;;;;;14.63;7.35;;;17.70;1.00;;;;;;5097144;28;20399;-69
2023/05/28 07:12:55;;;;;;;12.70;6.72;;;17.70;1.00;;;;;;5062343;28;20059;-70
2023/05/28 07:15:22;;;;;;;12.75;7.13;;;17.80;1.00;;;;;;5079431;28;20028;-69
2023/05/28 07:17:48;;;;;;;17.75;8.23;;;18.00;1.00;;;;;;5095934;28;20075;-72
2023/05/28 07:20:16;;;;;;;15.85;7.65;;;17.90;1.00;;;;;;5095797;28;20066;-71
2023/05/28 07:22:52;;;;;;;18.17;7.78;;;18.00;1.00;;;;;;5082686;28;20036;-71
2023/05/28 07:25:18;;;;;;;17.10;7.32;;;18.20;1.00;;;;;;5065917;28;20020;-71
2023/05/28 07:27:44;;;;;;;14.60;7.28;;;18.40;1.00;;;;;;5082529;28;20028;-71
2023/05/28 07:30:12;;;;;;;14.75;6.88;;;18.60;1.00;;;;;;5049980;28;20032;-71
2023/05/28 07:32:38;;;;;;;14.23;6.75;;;18.70;1.00;;;;;;5099337;28;20384;-72
2023/05/28 07:35:05;;;;;;;14.40;6.53;;;18.70;1.00;;;;;;5082526;28;20163;-73
2023/05/28 07:37:33;;;;;;;12.20;6.88;;;18.70;1.00;;;;;;5082694;28;20032;-70
2023/05/28 07:39:59;;;;;;;15.23;6.80;;;18.80;1.00;;;;;;5082454;28;20256;-71
2023/05/28 07:42:25;;;;;;;12.77;6.45;;;18.90;1.00;;;;;;5098981;28;20047;-71
2023/05/28 07:45:00;;;;;;;12.90;6.28;;;19.00;1.00;;;;;;5083604;28;20036;-70
2023/05/28 07:47:26;;;;;;;12.07;5.70;;;19.00;1.00;;;;;;5099288;28;20387;-72
2023/05/28 07:50:30;;;;;;;12.43;5.78;;;19.20;1.00;;;;;;5046671;28;20045;-70
2023/05/28 07:53:05;;;;;;;14.88;6.18;;;19.50;1.00;;;;;;5011261;28;20098;-70
2023/05/28 07:55:32;;;;;;;12.48;5.68;;;19.70;1.00;;;;;;5038258;28;20090;-70
2023/05/28 07:57:58;;;;;;;10.07;5.30;;;19.70;1.00;;;;;;5065194;28;20039;-71
2023/05/28 08:00:27;;;;;;;13.63;5.72;;;19.80;1.00;;;;;;5082163;28;20331;-70
2023/05/28 08:02:53;;;;;;;11.40;5.28;;;20.00;1.00;;;;;;5099410;28;20388;-71
2023/05/28 08:05:24;;;;;;;13.15;5.18;;;19.90;1.00;;;;;;5082454;28;20024;-71
2023/05/28 08:07:51;;;;;;;12.07;5.65;;;20.00;1.00;;;;;;5081854;28;20369;-70
2023/05/28 08:10:17;;;;;;;9.07;4.28;;;19.70;1.00;;;;;;5081804;28;20028;-71
2023/05/28 08:12:43;;;;;;;9.60;5.00;;;19.90;1.00;;;;;;5081676;28;20024;-71
2023/05/28 08:15:09;;;;;;;11.75;4.45;;;19.80;1.00;;;;;;5098564;28;20028;-67
2023/05/28 08:17:36;;;;;;;11.13;5.30;;;19.90;99.90;;;;;;5081753;28;20043;-70
2023/05/28 08:20:11;;;;;;;9.93;4.70;;;20.00;99.90;;;;;;5083147;28;20027;-68
2023/05/28 08:22:46;;;;;;;11.65;5.07;;;20.10;99.90;;;;;;5098228;28;20032;-68
2023/05/28 08:25:12;;;;;;;9.88;4.70;;;20.20;99.90;;;;;;5098429;28;20337;-69
2023/05/28 08:27:38;;;;;;;10.30;4.60;;;20.40;99.90;;;;;;5081299;28;20024;-68
2023/05/28 08:30:05;;;;;;;12.80;4.88;;;20.60;99.90;;;;;;5098251;28;20028;-70
2023/05/28 08:32:37;;;;;;;;;;;20.40;99.90;;;;;;5082366;28;20036;-69
2023/05/28 08:35:03;;;;;;;7.78;4.03;;;20.50;99.90;;;;;;5081147;28;19922;-69
2023/05/28 08:37:29;;;;;;;9.00;4.15;;;20.60;99.90;;;;;;5098134;28;20150;-68
2023/05/28 08:40:18;;;;;;;12.15;4.25;;;20.60;99.90;;;;;;5095203;28;20115;-68
2023/05/28 08:42:44;;;;;;;7.90;4.20;;;20.80;99.90;;;;;;5097725;28;20028;-69
2023/05/28 08:45:11;;;;;;;9.35;4.03;;;20.90;1.00;;;;;;5064677;28;20028;-69
2023/05/28 08:47:40;;;;;;;9.73;3.88;;;21.00;1.00;;;;;;5081300;28;20036;-70
2023/05/28 08:50:17;;;;;;;11.30;4.00;;;21.20;1.00;;;;;;5082545;28;20032;-68
2023/05/28 08:53:01;;;;;;;8.60;3.53;;;21.30;1.00;;;;;;5083135;28;20055;-69
2023/05/28 08:55:28;;;;;;;8.35;3.65;;;21.50;1.00;;;;;;5097788;28;20028;-69
2023/05/28 08:58:04;;;;;;;11.63;4.38;;;21.70;1.00;;;;;;5097849;28;20434;-70
2023/05/28 09:00:30;;;;;;;9.15;4.13;;;21.90;1.00;;;;;;5097717;28;20394;-69
2023/05/28 09:03:22;;;;;;;7.40;4.10;;;22.20;1.00;;;;;;5094103;28;20044;-69
2023/05/28 09:05:49;;;;;;;8.70;4.07;;;22.10;99.90;;;;;;5098296;28;20093;-69
2023/05/28 09:08:17;;;;;;;10.90;4.28;;;22.20;1.00;;;;;;5080259;28;20105;-69
2023/05/28 09:10:43;;;;;;;9.88;4.10;;;22.20;99.90;;;;;;5097330;28;20107;-70
2023/05/28 09:13:10;;;;;;;8.57;3.55;;;22.30;70.90;;;;;;5080508;28;20036;-70
2023/05/28 09:15:36;;;;;;;11.57;4.53;;;22.10;99.90;;;;;;5080455;28;20303;-69
2023/05/28 09:18:05;;;;;;;9.65;4.10;;;22.20;1.00;;;;;;5097260;28;20036;-69
2023/05/28 09:20:31;;;;;;;12.10;4.97;;;21.90;99.90;;;;;;5097249;28;20032;-69
2023/05/28 09:23:03;;;;;;;11.38;4.60;;;22.00;99.90;;;;;;5080232;28;20411;-70
2023/05/28 09:25:47;;;;;;;9.00;4.15;;;22.20;1.00;;;;;;5097375;28;20042;-70
2023/05/28 09:28:17;;;;;;;10.75;4.20;;;22.00;1.00;;;;;;5080727;28;20066;-70
2023/05/28 09:30:43;;;;;;;9.65;3.90;;;22.00;99.90;;;;;;5097064;28;20060;-70
2023/05/28 09:33:09;;;;;;;11.10;3.75;;;22.30;1.00;;;;;;5097645;28;20395;-70
2023/05/28 09:35:35;;;;;;;9.23;3.40;;;22.70;1.00;;;;;;5098078;28;20032;-70
2023/05/28 09:38:07;;;;;;;8.25;3.42;;;22.70;14.80;;;;;;5080024;28;20031;-70
2023/05/28 09:40:43;;;;;;;9.05;4.45;;;22.80;99.90;;;;;;5097685;28;20349;-70
2023/05/28 09:43:12;;;;;;;10.25;4.25;;;22.70;1.00;;;;;;5097609;28;20032;-70
2023/05/28 09:45:38;;;;;;;6.15;3.70;;;23.10;1.00;;;;;;5097047;28;20173;-70
2023/05/28 09:48:04;;;;;;;8.73;3.65;;;23.40;1.00;;;;;;5079780;28;20466;-71
2023/05/28 09:50:30;;;;;;;7.47;3.63;;;23.50;1.00;;;;;;5063285;28;20039;-69
2023/05/28 09:52:57;;;;;;;7.55;3.40;;;23.60;99.90;;;;;;5097396;28;20063;-70
2023/05/28 09:55:25;;;;;;;8.45;3.47;;;23.80;99.90;;;;;;5097432;28;20177;-69
2023/05/28 09:58:05;;;;;;;5.38;3.17;;;23.50;1.00;;;;;;5096566;28;20035;-70
2023/05/28 10:00:52;;;;;;;5.80;2.80;;;23.20;1.00;;;;;;5097347;28;20304;-69
2023/05/28 10:03:33;;;;;;;7.70;3.40;;;23.30;1.00;;;;;;5096510;28;20038;-70
2023/05/28 10:06:01;;;;;;;6.40;3.20;;;23.00;1.00;;;;;;5096410;28;20305;-70
2023/05/28 10:08:27;;;;;;;7.15;2.85;;;23.00;1.00;;;;;;5097115;28;20044;-70
2023/05/28 10:10:54;;;;;;;7.15;3.40;;;22.80;87.40;;;;;;5096374;28;20036;-70
2023/05/28 10:13:21;;;;;;;6.40;3.00;;;23.10;1.00;;;;;;5096280;28;20051;-70
2023/05/28 10:15:48;;;;;;;5.97;3.30;;;23.30;1.00;;;;;;5096331;28;20123;-70
2023/05/28 10:18:14;;;;;;;6.10;3.00;;;23.30;1.00;;;;;;5096286;28;20050;-69
2023/05/28 10:20:43;;;;;;;6.57;3.17;;;23.50;1.00;;;;;;5079440;28;20139;-69
2023/05/28 10:23:10;;;;;;;6.25;2.92;;;23.90;1.00;;;;;;5096170;28;20044;-70
2023/05/28 10:25:36;;;;;;;9.10;3.25;;;24.10;99.90;;;;;;5096989;28;20066;-70
2023/05/28 10:28:03;;;;;;;7.20;3.40;;;24.00;99.90;;;;;;5096090;28;20445;-69
2023/05/28 10:30:32;;;;;;;7.05;2.88;;;24.10;99.90;;;;;;5096305;28;20032;-70
2023/05/28 10:32:58;;;;;;;7.45;3.05;;;24.20;99.90;;;;;;5097390;28;20043;-72
2023/05/28 10:35:24;;;;;;;6.43;3.10;;;24.80;1.00;;;;;;5096345;28;20067;-73
2023/05/28 10:37:50;;;;;;;8.60;3.25;;;25.00;1.00;;;;;;5096306;28;20063;-76
2023/05/28 10:40:23;;;;;;;7.72;3.20;;;25.00;1.00;;;;;;5079388;28;20093;-73
2023/05/28 10:42:49;;;;;;;7.75;3.08;;;25.20;1.00;;;;;;5096055;28;20040;-73
2023/05/28 10:45:15;;;;;;;8.30;3.00;;;25.30;99.90;;;;;;5062807;28;20024;-74
2023/05/28 10:47:50;;;;;;;9.27;3.67;;;25.40;99.90;;;;;;5096055;28;20035;-74
2023/05/28 10:50:17;;;;;;;5.00;2.80;;;25.50;99.90;;;;;;5096447;28;20345;-74
2023/05/28 10:53:06;;;;;;;8.15;3.00;;;25.60;99.90;;;;;;5096915;28;20092;-74
2023/05/28 10:55:48;;;;;;;6.55;3.28;;;25.80;78.90;;;;;;5096356;28;20032;-72
2023/05/28 10:58:35;;;;;;;7.85;3.28;;;26.20;68.50;;;;;;5100008;28;20115;-75
2023/05/28 11:01:18;;;;;;;8.20;3.00;;;26.20;1.00;;;;;;5083775;28;20109;-73
2023/05/28 11:03:44;;;;;;;;;;;26.60;1.00;;;;;;5100270;28;20031;-73
2023/05/28 11:06:12;;;;;;;9.35;2.95;;;27.60;1.00;;;;;;5099666;28;19912;-73
2023/05/28 11:08:44;;;;;;;5.53;2.97;;;29.00;1.00;;;;;;5082497;28;20036;-74
2023/05/28 11:11:15;;;;;;;5.72;2.92;;;29.70;1.00;;;;;;5099764;28;20036;-73
2023/05/28 11:13:43;;;;;;;6.35;2.65;;;30.10;1.00;;;;;;5100244;28;20060;-74
2023/05/28 11:16:10;;;;;;;8.65;3.30;;;30.70;99.90;;;;;;5100930;28;20326;-72
2023/05/28 11:18:36;;;;;;;6.65;3.08;;;31.20;99.90;;;;;;5082463;28;20032;-75
2023/05/28 11:21:07;;;;;;;8.40;2.95;;;31.10;99.90;;;;;;5100282;28;20054;-75
2023/05/28 11:23:34;;;;;;;5.45;2.95;;;31.00;99.90;;;;;;5100116;28;20024;-74
2023/05/28 11:26:00;;;;;;;8.15;3.13;;;31.00;99.90;;;;;;5100118;28;20308;-74
2023/05/28 11:28:26;;;;;;;6.13;3.17;;;31.20;99.90;;;;;;5100063;28;20081;-74
2023/05/28 11:30:55;;;;;;;4.28;3.00;;;31.10;99.90;;;;;;5082608;28;20093;-75
2023/05/28 11:33:21;;;;;;;5.93;3.20;;;32.10;99.90;;;;;;5099972;28;20031;-75
2023/05/28 11:35:59;;;;;;;5.30;3.05;;;33.20;99.90;;;;;;5099303;28;20103;-75
2023/05/28 11:38:25;;;;;;;5.35;2.97;;;34.00;99.90;;;;;;5099217;28;20020;-74
2023/05/28 11:41:01;;;;;;;6.80;3.05;;;34.20;90.20;;;;;;5099242;28;20385;-75
2023/05/28 11:43:30;;;;;;;7.75;3.65;;;34.40;50.20;;;;;;5100002;28;20031;-74
2023/05/28 11:46:00;;;;;;;10.13;3.67;;;34.30;25.30;;;;;;5099019;28;20039;-74
2023/05/28 11:48:27;;;;;;;6.50;3.00;;;33.90;14.00;;;;;;5082379;28;20072;-76
2023/05/28 11:51:02;;;;;;;5.60;3.38;;;33.00;18.80;;;;;;5098899;28;20020;-75
2023/05/28 11:53:42;;;;;;;6.55;3.13;;;34.40;19.10;;;;;;5099481;28;20304;-75
2023/05/28 11:56:12;;;;;;;7.85;3.17;;;35.30;5.80;;;;;;5098859;28;20110;-75
2023/05/28 11:58:44;;;;;;;6.53;2.97;;;34.50;1.00;;;;;;5065315;28;20293;-73
2023/05/28 12:01:14;;;;;;;5.90;3.10;;;35.20;1.00;;;;;;5098902;28;20039;-75
2023/05/28 12:03:41;;;;;;;6.20;2.85;;;35.30;1.00;;;;;;5099361;28;20039;-75
2023/05/28 12:06:06;;;;;;;6.40;3.08;;;35.80;1.00;;;;;;5098671;28;20391;-76
2023/05/28 12:08:32;;;;;;;8.18;3.28;;;35.80;1.00;;;;;;5080928;28;20074;-72
2023/05/28 12:11:02;;;;;;;7.63;3.03;;;36.40;1.00;;;;;;5099326;28;20387;-74
2023/05/28 12:13:35;;;;;;;6.18;3.17;;;37.00;1.00;;;;;;5099308;28;20044;-75
2023/05/28 12:16:11;;;;;;;5.32;2.80;;;37.20;1.00;;;;;;5099226;28;20032;-72
2023/05/28 12:18:41;;;;;;;7.13;3.28;;;37.40;1.00;;;;;;5099384;28;20292;-73
2023/05/28 12:21:18;;;;;;;5.35;3.42;;;38.40;1.00;;;;;;5099198;28;20071;-75
2023/05/28 12:23:45;;;;;;;7.80;3.13;;;37.80;1.00;;;;;;5098920;28;20035;-71
2023/05/28 12:26:14;;;;;;;5.05;3.35;;;37.10;1.00;;;;;;5099297;28;20410;-72
2023/05/28 12:28:41;;;;;;;6.93;3.33;;;36.70;1.00;;;;;;5098523;28;20047;-67
2023/05/28 12:31:08;;;;;;;6.05;3.17;;;36.10;1.00;;;;;;5098273;28;20066;-73
2023/05/28 12:33:34;;;;;;;4.70;3.03;;;36.40;1.00;;;;;;5081346;28;20410;-75
2023/05/28 12:36:00;;;;;;;5.75;3.25;;;37.70;1.00;;;;;;5098160;28;20028;-76
2023/05/28 12:38:26;;;;;;;4.10;3.35;;;37.90;1.00;;;;;;5098909;28;20046;-75
2023/05/28 12:40:53;;;;;;;6.45;3.17;;;38.80;1.00;;;;;;5098125;28;20028;-80
2023/05/28 12:43:20;;;;;;;8.43;3.70;;;38.40;1.00;;;;;;5064448;28;20036;-78
2023/05/28 12:45:46;;;;;;;5.72;3.05;;;38.90;1.00;;;;;;5098606;28;20020;-76
2023/05/28 12:48:12;;;;;;;8.35;3.58;;;38.60;1.00;;;;;;5081161;28;20024;-78